sensor_id;sensor_type;location;lat;lon;timestamp;pressure;altitude;pressure_sealevel;temperature;humidity
7586;BME280;12459;42.646;23.292;2023-01-27T00:09:39;92756.88;;;9.06;100.00
7586;BME280;12459;42.646;23.292;2023-01-27T00:24:42;92735.31;;;8.96;100.00
7586;BME280;12459;42.646;23.292;2023-01-27T00:39:43;92727.97;;;9.01;100.00
7586;BME280;12459;42.646;23.292;2023-01-27T00:54:45;92734.75;;;9.05;100.00
7586;BME280;12459;42.646;23.292;2023-01-27T01:09:46;92734.81;;;9.02;100.00
7586;BME280;12459;42.646;23.292;2023-01-27T01:24:48;92744.34;;;9.03;100.00
7586;BME280;12459;42.646;23.292;2023-01-27T01:39:50;92741.31;;;9.01;100.00
7586;BME280;12459;42.646;23.292;2023-01-27T01:54:52;92736.31;;;9.03;100.00
7586;BME280;12459;42.646;23.292;2023-01-27T02:09:55;92712.28;;;9.03;100.00
7586;BME280;12459;42.646;23.292;2023-01-27T02:24:59;92679.03;;;9.04;100.00
7586;BME280;12459;42.646;23.292;2023-01-27T02:40:06;92672.19;;;9.03;100.00
7586;BME280;12459;42.646;23.292;2023-01-27T02:55:09;92687.88;;;9.01;100.00
7586;BME280;12459;42.646;23.292;2023-01-27T03:10:11;92669.19;;;9.01;100.00
7586;BME280;12459;42.646;23.292;2023-01-27T03:25:12;92651.97;;;9.02;100.00
7586;BME280;12459;42.646;23.292;2023-01-27T03:40:15;92636.38;;;9.00;100.00
7586;BME280;12459;42.646;23.292;2023-01-27T03:55:35;92611.97;;;8.98;100.00
7586;BME280;12459;42.646;23.292;2023-01-27T04:10:37;92642.97;;;8.95;100.00
7586;BME280;12459;42.646;23.292;2023-01-27T04:25:39;92689.13;;;8.96;100.00
7586;BME280;12459;42.646;23.292;2023-01-27T04:40:40;92691.53;;;8.90;100.00
7586;BME280;12459;42.646;23.292;2023-01-27T04:55:44;92726.19;;;8.94;100.00
7586;BME280;12459;42.646;23.292;2023-01-27T05:10:47;92706.06;;;8.89;100.00
7586;BME280;12459;42.646;23.292;2023-01-27T05:25:49;92692.28;;;8.91;100.00
7586;BME280;12459;42.646;23.292;2023-01-27T05:40:53;92683.44;;;8.94;100.00
7586;BME280;12459;42.646;23.292;2023-01-27T05:55:55;92694.06;;;8.98;100.00
7586;BME280;12459;42.646;23.292;2023-01-27T06:10:57;92680.84;;;8.90;100.00
7586;BME280;12459;42.646;23.292;2023-01-27T06:26:03;92700.38;;;8.87;100.00
7586;BME280;12459;42.646;23.292;2023-01-27T06:41:05;92704.56;;;8.88;100.00
7586;BME280;12459;42.646;23.292;2023-01-27T06:56:07;92711.41;;;8.89;100.00
7586;BME280;12459;42.646;23.292;2023-01-27T07:11:08;92731.59;;;8.90;100.00
7586;BME280;12459;42.646;23.292;2023-01-27T07:26:10;92706.75;;;8.93;100.00
7586;BME280;12459;42.646;23.292;2023-01-27T07:41:25;92728.94;;;8.90;100.00
7586;BME280;12459;42.646;23.292;2023-01-27T07:56:26;92722.84;;;8.90;100.00
7586;BME280;12459;42.646;23.292;2023-01-27T08:11:28;92709.06;;;8.91;100.00
7586;BME280;12459;42.646;23.292;2023-01-27T08:26:30;92728.13;;;8.93;100.00
7586;BME280;12459;42.646;23.292;2023-01-27T08:41:31;92733.13;;;8.91;100.00
7586;BME280;12459;42.646;23.292;2023-01-27T08:56:33;92742.63;;;8.92;100.00
7586;BME280;12459;42.646;23.292;2023-01-27T09:11:36;92733.47;;;8.93;100.00
7586;BME280;12459;42.646;23.292;2023-01-27T09:26:38;92726.25;;;8.90;100.00
7586;BME280;12459;42.646;23.292;2023-01-27T09:41:47;92710.56;;;8.92;100.00
7586;BME280;12459;42.646;23.292;2023-01-27T10:27:25;92669.16;;;8.84;100.00
7586;BME280;12459;42.646;23.292;2023-01-27T10:42:31;92669.50;;;8.86;100.00
7586;BME280;12459;42.646;23.292;2023-01-27T10:57:55;92662.31;;;8.83;100.00
7586;BME280;12459;42.646;23.292;2023-01-27T11:13:00;92666.13;;;8.82;100.00
7586;BME280;12459;42.646;23.292;2023-01-27T11:43:14;92634.34;;;8.88;100.00
7586;BME280;12459;42.646;23.292;2023-01-27T11:58:21;92632.75;;;8.90;100.00
7586;BME280;12459;42.646;23.292;2023-01-27T12:13:24;92629.34;;;8.90;100.00
7586;BME280;12459;42.646;23.292;2023-01-27T12:28:33;92632.75;;;8.90;100.00
7586;BME280;12459;42.646;23.292;2023-01-27T12:43:49;92637.94;;;8.98;100.00
7586;BME280;12459;42.646;23.292;2023-01-27T12:58:57;92631.09;;;8.96;100.00
7586;BME280;12459;42.646;23.292;2023-01-27T13:14:00;92638.63;;;9.02;100.00
7586;BME280;12459;42.646;23.292;2023-01-27T13:44:22;92630.84;;;8.91;100.00
7586;BME280;12459;42.646;23.292;2023-01-27T14:31:03;92664.16;;;8.86;100.00
7586;BME280;12459;42.646;23.292;2023-01-27T15:32:47;92713.00;;;10.66;93.52
7586;BME280;12459;42.646;23.292;2023-01-27T15:47:49;92729.22;;;8.76;100.00
7586;BME280;12459;42.646;23.292;2023-01-27T16:02:59;92736.38;;;10.65;93.52
7586;BME280;12459;42.646;23.292;2023-01-27T16:33:20;92762.88;;;10.76;92.13
7586;BME280;12459;42.646;23.292;2023-01-27T16:48:36;92768.75;;;10.71;92.40
7586;BME280;12459;42.646;23.292;2023-01-27T17:03:39;92781.31;;;10.74;91.83
7586;BME280;12459;42.646;23.292;2023-01-27T17:18:41;92785.53;;;10.87;90.77
7586;BME280;12459;42.646;23.292;2023-01-27T17:33:56;92794.91;;;8.74;100.00
7586;BME280;12459;42.646;23.292;2023-01-27T17:49:03;92815.59;;;8.70;100.00
7586;BME280;12459;42.646;23.292;2023-01-27T18:04:08;92837.22;;;8.75;100.00
7586;BME280;12459;42.646;23.292;2023-01-27T18:19:17;92841.88;;;8.71;100.00
7586;BME280;12459;42.646;23.292;2023-01-27T18:34:28;92836.84;;;10.24;100.00
7586;BME280;12459;42.646;23.292;2023-01-27T19:04:45;92851.50;;;10.36;94.70
7586;BME280;12459;42.646;23.292;2023-01-27T19:19:47;92855.44;;;10.48;93.78
7586;BME280;12459;42.646;23.292;2023-01-27T19:34:48;92853.41;;;10.36;94.72
7586;BME280;12459;42.646;23.292;2023-01-27T19:49:50;92860.53;;;10.26;95.42
7586;BME280;12459;42.646;23.292;2023-01-27T20:04:52;92866.38;;;10.37;95.28
7586;BME280;12459;42.646;23.292;2023-01-27T20:19:53;92870.50;;;10.58;93.07
7586;BME280;12459;42.646;23.292;2023-01-27T20:34:55;92872.84;;;10.40;94.16
7586;BME280;12459;42.646;23.292;2023-01-27T20:49:59;92882.22;;;10.64;93.06
7586;BME280;12459;42.646;23.292;2023-01-27T21:05:01;92902.25;;;8.65;100.00
7586;BME280;12459;42.646;23.292;2023-01-27T21:20:02;92913.28;;;8.67;100.00
7586;BME280;12459;42.646;23.292;2023-01-27T21:35:04;92917.72;;;8.54;100.00
7586;BME280;12459;42.646;23.292;2023-01-27T21:50:07;92930.72;;;8.52;100.00
7586;BME280;12459;42.646;23.292;2023-01-27T22:05:11;92938.78;;;8.48;100.00
7586;BME280;12459;42.646;23.292;2023-01-27T22:20:14;92940.28;;;8.49;100.00
7586;BME280;12459;42.646;23.292;2023-01-27T22:35:16;92927.44;;;10.46;95.72
7586;BME280;12459;42.646;23.292;2023-01-27T22:50:18;92963.91;;;8.51;100.00
7586;BME280;12459;42.646;23.292;2023-01-27T23:05:20;92953.22;;;8.51;100.00
7586;BME280;12459;42.646;23.292;2023-01-27T23:20:22;92957.06;;;8.50;100.00
7586;BME280;12459;42.646;23.292;2023-01-27T23:35:23;92934.88;;;8.53;100.00
7586;BME280;12459;42.646;23.292;2023-01-27T23:50:25;92948.41;;;8.66;100.00
